Time;durP1;ratioP1;P1;durP2;ratioP2;P2;SDS_P1;SDS_P2;PMS_P1;PMS_P2;Temp;Humidity;BMP_temperature;BMP_pressure;BME280_temperature;BME280_humidity;BME280_pressure;Samples;Min_cycle;Max_cycle;Signal;HPM_P1;HPM_P2
2023/07/28 00:02:02;;;;;;;918.37;841.87;;;17.40;99.90;;;;;;4995542;28;20585;-64
2023/07/28 00:04:29;;;;;;;912.30;836.70;;;17.30;99.90;;;;;;4995605;28;20454;-64
2023/07/28 00:06:56;;;;;;;911.13;835.83;;;17.40;99.90;;;;;;4995855;28;20553;-64
2023/07/28 00:09:23;;;;;;;915.40;840.13;;;17.30;99.90;;;;;;4995420;28;20549;-64
2023/07/28 00:11:51;;;;;;;914.53;840.47;;;17.40;99.90;;;;;;4995616;28;20461;-64
2023/07/28 00:14:18;;;;;;;917.00;842.37;;;17.30;99.90;;;;;;4995718;28;20460;-64
2023/07/28 00:16:45;;;;;;;908.67;834.57;;;17.40;99.90;;;;;;4995389;28;20461;-64
2023/07/28 00:19:12;;;;;;;906.50;832.57;;;17.40;99.90;;;;;;4995481;28;20454;-64
2023/07/28 00:21:39;;;;;;;912.93;839.13;;;17.40;99.90;;;;;;4995418;28;20481;-64
2023/07/28 00:24:06;;;;;;;922.77;847.63;;;17.40;99.90;;;;;;4995426;28;20465;-64
2023/07/28 00:26:33;;;;;;;920.70;847.40;;;17.40;99.90;;;;;;4995446;28;20454;-64
2023/07/28 00:29:04;;;;;;;912.47;839.30;;;17.40;99.90;;;;;;4994980;28;20573;-64
2023/07/28 00:31:31;;;;;;;911.07;837.80;;;17.40;99.90;;;;;;4995090;28;20546;-64
2023/07/28 00:33:58;;;;;;;912.93;838.93;;;17.40;99.90;;;;;;4995151;28;20469;-64
2023/07/28 00:36:25;;;;;;;914.20;839.10;;;17.40;99.90;;;;;;4995426;28;20458;-64
2023/07/28 00:38:52;;;;;;;918.23;843.10;;;17.40;99.90;;;;;;4995060;28;20537;-64
2023/07/28 00:41:19;;;;;;;913.00;837.73;;;17.40;99.90;;;;;;4995078;28;20480;-65
2023/07/28 00:43:46;;;;;;;926.20;850.73;;;17.40;99.90;;;;;;4994567;28;20482;-64
2023/07/28 00:46:14;;;;;;;916.30;840.80;;;17.40;99.90;;;;;;4995110;28;20462;-64
2023/07/28 00:48:42;;;;;;;905.97;831.37;;;17.40;99.90;;;;;;4994432;28;20460;-64
2023/07/28 00:51:09;;;;;;;922.60;846.70;;;17.50;99.90;;;;;;4994700;28;20966;-64
2023/07/28 00:53:36;;;;;;;915.80;840.83;;;17.50;99.90;;;;;;4994789;28;20946;-64
2023/07/28 00:56:04;;;;;;;919.03;842.67;;;17.50;99.90;;;;;;4994671;28;20456;-64
2023/07/28 00:58:31;;;;;;;924.60;848.70;;;17.50;99.90;;;;;;4994619;28;20493;-64
2023/07/28 01:00:58;;;;;;;924.20;847.57;;;17.50;99.90;;;;;;4994702;28;20832;-64
2023/07/28 01:03:26;;;;;;;921.03;844.50;;;17.50;99.90;;;;;;4994469;28;20569;-64
2023/07/28 01:06:02;;;;;;;919.43;842.50;;;17.40;99.90;;;;;;4994612;28;20454;-64
2023/07/28 01:08:35;;;;;;;914.87;838.30;;;17.40;99.90;;;;;;4994467;28;20453;-64
2023/07/28 01:11:03;;;;;;;914.47;837.10;;;17.40;99.90;;;;;;4994502;28;20438;-64
2023/07/28 01:13:30;;;;;;;927.97;849.37;;;17.40;99.90;;;;;;4994496;28;20455;-64
2023/07/28 01:15:57;;;;;;;930.13;851.80;;;17.40;99.90;;;;;;4994503;28;20460;-64
2023/07/28 01:18:26;;;;;;;935.10;855.40;;;17.50;99.90;;;;;;4994249;28;20946;-64
2023/07/28 01:20:56;;;;;;;925.57;845.37;;;17.40;99.90;;;;;;4994186;28;20459;-64
2023/07/28 01:23:36;;;;;;;925.17;844.07;;;17.40;99.90;;;;;;4994087;28;20520;-64
2023/07/28 01:26:06;;;;;;;932.60;850.90;;;17.40;99.90;;;;;;4994452;28;20478;-64
2023/07/28 01:28:35;;;;;;;927.90;845.00;;;17.40;99.90;;;;;;4994225;28;20484;-64
2023/07/28 01:31:03;;;;;;;930.20;845.50;;;17.40;99.90;;;;;;4993938;28;20549;-64
2023/07/28 01:33:30;;;;;;;925.40;840.00;;;17.40;99.90;;;;;;4994029;28;20458;-64
2023/07/28 01:35:58;;;;;;;929.93;842.97;;;17.30;99.90;;;;;;4993660;28;20455;-64
2023/07/28 01:38:25;;;;;;;927.80;839.80;;;17.30;99.90;;;;;;4993890;28;20460;-64
2023/07/28 01:40:52;;;;;;;927.67;838.30;;;17.30;99.90;;;;;;4993618;28;20463;-64
2023/07/28 01:43:19;;;;;;;927.90;837.50;;;17.30;99.90;;;;;;4993940;28;20481;-64
2023/07/28 01:45:47;;;;;;;929.93;840.07;;;17.30;99.90;;;;;;4993856;28;20454;-64
2023/07/28 01:48:14;;;;;;;926.10;834.83;;;17.30;99.90;;;;;;4993835;28;20462;-64
2023/07/28 01:50:40;;;;;;;922.63;830.43;;;17.30;99.90;;;;;;4993725;28;20553;-64
2023/07/28 01:53:08;;;;;;;920.07;826.97;;;17.30;99.90;;;;;;4993529;28;20458;-64
2023/07/28 01:55:35;;;;;;;922.60;828.60;;;17.30;99.90;;;;;;4994028;28;20533;-64
2023/07/28 01:58:02;;;;;;;920.90;827.80;;;17.30;99.90;;;;;;4993705;28;20461;-64
2023/07/28 02:00:29;;;;;;;917.90;825.53;;;17.30;99.90;;;;;;4992686;28;20458;-64
2023/07/28 02:02:58;;;;;;;923.17;830.50;;;17.30;99.90;;;;;;4993505;28;20475;-64
2023/07/28 02:05:25;;;;;;;925.50;831.30;;;17.30;99.90;;;;;;4993343;28;20973;-64
2023/07/28 02:07:52;;;;;;;931.17;836.77;;;17.30;99.90;;;;;;4993259;28;20455;-64
2023/07/28 02:10:19;;;;;;;924.57;830.60;;;17.30;99.90;;;;;;4993155;28;20458;-64
2023/07/28 02:12:46;;;;;;;923.30;829.03;;;17.30;99.90;;;;;;4993497;28;20462;-64
2023/07/28 02:15:13;;;;;;;927.63;832.17;;;17.30;99.90;;;;;;4993425;28;20454;-64
2023/07/28 02:17:40;;;;;;;933.10;837.00;;;17.30;99.90;;;;;;4993304;28;20461;-64
2023/07/28 02:20:12;;;;;;;940.93;843.87;;;17.30;99.90;;;;;;4992903;28;20490;-64
2023/07/28 02:22:39;;;;;;;928.13;831.27;;;17.30;99.90;;;;;;4993467;28;20485;-64
2023/07/28 02:25:07;;;;;;;922.63;825.77;;;17.30;99.90;;;;;;4993125;28;20454;-63
2023/07/28 02:27:34;;;;;;;934.57;836.47;;;17.30;99.90;;;;;;4993172;28;20546;-64
2023/07/28 02:30:01;;;;;;;931.70;834.27;;;17.20;99.90;;;;;;4992900;28;20556;-63
2023/07/28 02:32:29;;;;;;;937.83;838.90;;;17.30;99.90;;;;;;4993123;28;20549;-63
2023/07/28 02:34:56;;;;;;;930.67;832.80;;;17.30;99.90;;;;;;4992919;28;20461;-63
2023/07/28 02:37:25;;;;;;;937.13;838.90;;;17.30;99.90;;;;;;4992939;28;20450;-63
2023/07/28 02:39:52;;;;;;;932.70;833.30;;;17.30;99.90;;;;;;4992828;28;20546;-63
2023/07/28 02:42:19;;;;;;;934.70;835.33;;;17.30;99.90;;;;;;4992820;28;20565;-63
2023/07/28 02:44:45;;;;;;;926.57;827.70;;;17.30;99.90;;;;;;4992936;28;20494;-63
2023/07/28 02:47:11;;;;;;;923.83;824.37;;;17.30;99.90;;;;;;4992938;28;20489;-63
2023/07/28 02:49:38;;;;;;;936.90;836.90;;;17.30;99.90;;;;;;4992537;28;20453;-64
2023/07/28 02:52:06;;;;;;;927.27;827.40;;;17.30;99.90;;;;;;4992806;28;20460;-64
2023/07/28 02:54:34;;;;;;;929.83;830.63;;;17.30;99.90;;;;;;4992895;28;20458;-63
2023/07/28 02:57:01;;;;;;;925.43;826.30;;;17.30;99.90;;;;;;4992864;28;20554;-64
2023/07/28 02:59:28;;;;;;;929.60;830.13;;;17.30;99.90;;;;;;4992538;28;20545;-64
2023/07/28 03:01:57;;;;;;;928.30;828.60;;;17.30;99.90;;;;;;4992712;28;20541;-64
2023/07/28 03:04:24;;;;;;;924.80;824.80;;;17.30;99.90;;;;;;4992624;28;21017;-64
2023/07/28 03:06:50;;;;;;;924.00;824.60;;;17.30;99.90;;;;;;4993078;28;20458;-65
2023/07/28 03:09:17;;;;;;;919.13;819.60;;;17.30;99.90;;;;;;4992658;28;20830;-64
2023/07/28 03:11:45;;;;;;;916.00;816.83;;;17.30;99.90;;;;;;4993304;28;20481;-64
2023/07/28 03:14:13;;;;;;;914.90;815.70;;;17.30;99.90;;;;;;4996576;28;20541;-64
2023/07/28 03:16:40;;;;;;;918.53;817.73;;;17.30;99.90;;;;;;4996473;28;20934;-64
2023/07/28 03:19:07;;;;;;;924.37;823.37;;;17.30;99.90;;;;;;4996387;28;20454;-64
2023/07/28 03:21:34;;;;;;;926.70;825.70;;;17.30;99.90;;;;;;4996347;28;20934;-64
2023/07/28 03:24:01;;;;;;;920.30;819.03;;;17.30;99.90;;;;;;4996318;28;20478;-64
2023/07/28 03:26:28;;;;;;;924.30;823.00;;;17.30;99.90;;;;;;4996499;28;20464;-64
2023/07/28 03:28:56;;;;;;;928.03;826.47;;;17.30;99.90;;;;;;4996160;28;20548;-64
2023/07/28 03:31:23;;;;;;;932.80;831.40;;;17.30;99.90;;;;;;4996177;28;20569;-64
2023/07/28 03:33:50;;;;;;;932.50;830.50;;;17.30;99.90;;;;;;4996324;28;20545;-63
2023/07/28 03:36:18;;;;;;;935.03;833.33;;;17.30;99.90;;;;;;4996443;28;20513;-63
2023/07/28 03:38:45;;;;;;;935.47;833.20;;;17.30;99.90;;;;;;4996054;28;20541;-63
2023/07/28 03:41:12;;;;;;;932.80;830.40;;;17.30;99.90;;;;;;4995999;28;20454;-63
2023/07/28 03:43:39;;;;;;;929.17;827.57;;;17.30;99.90;;;;;;4995938;28;20474;-64
2023/07/28 03:46:07;;;;;;;944.67;840.37;;;17.30;99.90;;;;;;4996211;28;20549;-64
2023/07/28 03:48:34;;;;;;;942.67;838.87;;;17.40;99.90;;;;;;4996070;28;20482;-64
2023/07/28 03:51:01;;;;;;;944.10;840.50;;;17.30;99.90;;;;;;4995885;28;20493;-64
2023/07/28 03:53:27;;;;;;;945.60;841.30;;;17.40;99.90;;;;;;4995872;28;20450;-64
2023/07/28 03:55:57;;;;;;;945.63;842.77;;;17.30;99.90;;;;;;4995852;28;20458;-64
2023/07/28 03:58:24;;;;;;;944.13;841.37;;;17.40;99.90;;;;;;4995909;28;20458;-64
2023/07/28 04:00:52;;;;;;;936.70;834.97;;;17.40;99.90;;;;;;4995742;28;20454;-64
2023/07/28 04:03:20;;;;;;;953.07;849.13;;;17.40;99.90;;;;;;4995788;28;20474;-63
2023/07/28 04:05:47;;;;;;;947.83;844.80;;;17.40;99.90;;;;;;4995647;28;20469;-64
2023/07/28 04:08:13;;;;;;;966.60;862.07;;;17.40;99.90;;;;;;4995651;28;20458;-63
2023/07/28 04:10:40;;;;;;;967.27;862.67;;;17.40;99.90;;;;;;4995323;28;20457;-64
2023/07/28 04:13:07;;;;;;;955.80;852.00;;;17.40;99.90;;;;;;4995569;28;21017;-63
2023/07/28 04:15:34;;;;;;;953.00;849.53;;;17.40;99.90;;;;;;4995699;28;20540;-63
2023/07/28 04:18:01;;;;;;;962.93;858.73;;;17.40;99.90;;;;;;4995621;28;20768;-63
2023/07/28 04:20:29;;;;;;;957.33;853.10;;;17.40;99.90;;;;;;4995239;28;20545;-63
2023/07/28 04:22:56;;;;;;;944.10;841.13;;;17.40;99.90;;;;;;4995057;28;20478;-63
2023/07/28 04:25:23;;;;;;;959.53;856.37;;;17.40;99.90;;;;;;4994705;28;20454;-63
2023/07/28 04:27:50;;;;;;;952.67;848.77;;;17.50;99.90;;;;;;4995215;28;20960;-63
2023/07/28 04:30:17;;;;;;;962.93;858.73;;;17.50;99.90;;;;;;4995112;28;20458;-63
2023/07/28 04:32:43;;;;;;;958.27;856.07;;;17.50;99.90;;;;;;4995283;28;20455;-64
2023/07/28 04:35:10;;;;;;;951.30;849.20;;;17.50;99.90;;;;;;4995421;28;20538;-63
2023/07/28 04:37:38;;;;;;;939.70;837.50;;;17.50;99.90;;;;;;4994855;28;20533;-63
2023/07/28 04:40:08;;;;;;;958.40;855.23;;;17.50;99.90;;;;;;4995011;28;20540;-63
2023/07/28 04:42:36;;;;;;;938.67;837.07;;;17.60;99.90;;;;;;4995116;28;20494;-63
2023/07/28 04:45:03;;;;;;;936.60;834.67;;;17.60;99.90;;;;;;4995095;28;20469;-63
2023/07/28 04:47:29;;;;;;;938.73;836.27;;;17.60;99.90;;;;;;4995028;28;20454;-63
2023/07/28 04:49:56;;;;;;;943.43;841.13;;;17.70;99.90;;;;;;4994652;28;20458;-63
2023/07/28 04:52:23;;;;;;;941.80;839.50;;;17.70;99.90;;;;;;4994695;28;20458;-63
2023/07/28 04:54:51;;;;;;;950.13;847.47;;;17.70;99.90;;;;;;4995035;28;20540;-63
2023/07/28 04:57:20;;;;;;;933.93;832.17;;;17.70;99.90;;;;;;4994921;28;20461;-63
2023/07/28 04:59:47;;;;;;;938.63;836.10;;;17.70;99.90;;;;;;4994548;28;20462;-63
2023/07/28 05:02:14;;;;;;;938.03;835.70;;;17.70;99.90;;;;;;4994606;28;20886;-63
2023/07/28 05:04:40;;;;;;;938.17;836.67;;;17.70;99.90;;;;;;4994478;28;20479;-63
2023/07/28 05:08:03;;;;;;;952.43;850.03;;;17.80;99.90;;;;;;4994319;28;20478;-63
2023/07/28 05:10:32;;;;;;;944.97;843.87;;;17.80;99.90;;;;;;4993595;28;20466;-63
2023/07/28 05:12:58;;;;;;;946.17;844.47;;;17.80;99.90;;;;;;4994711;28;20482;-63
2023/07/28 05:15:25;;;;;;;930.73;830.30;;;17.80;99.90;;;;;;4994616;28;20457;-63
2023/07/28 05:17:52;;;;;;;927.70;827.83;;;17.80;99.90;;;;;;4994336;28;21044;-63
2023/07/28 05:20:19;;;;;;;923.23;823.60;;;17.90;99.90;;;;;;4994225;28;20461;-63
2023/07/28 05:22:46;;;;;;;927.80;827.83;;;17.90;99.90;;;;;;4994001;28;20464;-63
2023/07/28 05:25:12;;;;;;;913.00;813.30;;;17.90;99.90;;;;;;4994176;28;20862;-63
2023/07/28 05:27:41;;;;;;;913.97;814.50;;;18.00;99.90;;;;;;4994315;28;20458;-63
2023/07/28 05:30:09;;;;;;;914.67;814.90;;;18.00;99.90;;;;;;4993454;28;20469;-63
2023/07/28 05:32:35;;;;;;;921.87;823.60;;;18.00;99.90;;;;;;4993125;28;20462;-65
2023/07/28 05:35:02;;;;;;;913.53;815.57;;;18.00;99.90;;;;;;4992476;28;20454;-66
2023/07/28 05:37:29;;;;;;;915.13;817.03;;;18.00;99.90;;;;;;4993514;28;20458;-66
2023/07/28 05:39:56;;;;;;;915.17;817.17;;;18.10;99.90;;;;;;4993776;28;20541;-66
2023/07/28 05:42:24;;;;;;;913.10;815.03;;;18.00;99.90;;;;;;4993475;28;20458;-66
2023/07/28 05:44:54;;;;;;;929.73;831.60;;;18.10;99.90;;;;;;4993634;28;20489;-66
2023/07/28 05:47:21;;;;;;;918.70;821.60;;;18.10;99.90;;;;;;4993914;28;20853;-66
2023/07/28 05:49:48;;;;;;;916.40;819.40;;;18.10;99.90;;;;;;4993579;28;20463;-66
2023/07/28 05:52:15;;;;;;;924.20;827.13;;;18.10;99.90;;;;;;4993723;28;20458;-66
2023/07/28 05:54:42;;;;;;;924.60;827.43;;;18.00;99.90;;;;;;4993845;28;20908;-66
2023/07/28 05:57:09;;;;;;;928.77;830.77;;;18.00;99.90;;;;;;4993761;28;20470;-66
2023/07/28 05:59:35;;;;;;;914.13;816.77;;;18.00;99.90;;;;;;4993156;28;20476;-66
2023/07/28 06:02:04;;;;;;;910.23;814.07;;;18.00;99.90;;;;;;4993566;28;20829;-66
2023/07/28 06:04:31;;;;;;;922.53;824.60;;;18.00;99.90;;;;;;4993153;28;20478;-66
2023/07/28 06:06:58;;;;;;;928.17;830.67;;;18.00;99.90;;;;;;4993654;28;20821;-66
2023/07/28 06:09:24;;;;;;;927.40;829.40;;;18.10;99.90;;;;;;4993337;28;20464;-66
2023/07/28 06:11:51;;;;;;;924.50;827.23;;;18.10;99.90;;;;;;4993665;28;20454;-66
2023/07/28 06:14:18;;;;;;;929.07;831.70;;;18.10;99.90;;;;;;4993419;28;20451;-65
2023/07/28 06:16:45;;;;;;;927.27;831.60;;;18.10;99.90;;;;;;4993262;28;20502;-66
2023/07/28 06:19:13;;;;;;;926.73;831.33;;;18.10;99.90;;;;;;4992985;28;20466;-65
2023/07/28 06:21:40;;;;;;;930.40;834.50;;;18.20;99.90;;;;;;4993330;28;20464;-64
2023/07/28 06:24:07;;;;;;;932.90;836.10;;;18.20;99.90;;;;;;4993268;28;20576;-64
2023/07/28 06:26:34;;;;;;;925.13;829.60;;;18.30;99.90;;;;;;4993098;28;20454;-66
2023/07/28 06:29:01;;;;;;;922.57;827.60;;;18.30;99.90;;;;;;4992744;28;20458;-66
2023/07/28 06:31:27;;;;;;;930.17;834.27;;;18.30;99.90;;;;;;4992764;28;20468;-66
2023/07/28 06:33:54;;;;;;;930.10;835.20;;;18.30;99.90;;;;;;4992738;28;20822;-66
2023/07/28 06:36:22;;;;;;;927.20;833.07;;;18.40;99.90;;;;;;4993238;28;20458;-66
2023/07/28 06:38:50;;;;;;;924.47;830.17;;;18.40;99.90;;;;;;4992920;28;20454;-66
2023/07/28 06:41:17;;;;;;;911.13;818.37;;;18.40;99.90;;;;;;4992912;28;20919;-66
2023/07/28 06:43:44;;;;;;;909.40;815.60;;;18.40;99.90;;;;;;4992822;28;20474;-66
2023/07/28 06:46:11;;;;;;;917.90;825.30;;;18.50;99.90;;;;;;4990670;28;20460;-66
2023/07/28 06:48:38;;;;;;;911.60;819.87;;;18.50;99.90;;;;;;4992224;28;20458;-66
2023/07/28 06:51:06;;;;;;;908.47;817.30;;;18.50;99.90;;;;;;4991900;28;20466;-67
2023/07/28 06:53:34;;;;;;;896.17;805.87;;;18.50;99.90;;;;;;4992437;28;20454;-66
2023/07/28 06:56:01;;;;;;;893.77;803.47;;;18.50;99.90;;;;;;4992500;28;20826;-66
2023/07/28 06:58:28;;;;;;;890.87;800.87;;;18.60;99.90;;;;;;4992409;28;20490;-66
2023/07/28 07:00:56;;;;;;;895.03;805.63;;;18.60;99.90;;;;;;4991937;28;20454;-66
2023/07/28 07:03:23;;;;;;;880.13;790.97;;;18.60;99.90;;;;;;4992228;28;20466;-66
2023/07/28 07:05:51;;;;;;;887.13;797.27;;;18.60;99.90;;;;;;4992353;28;20869;-66
2023/07/28 07:08:17;;;;;;;887.20;800.03;;;18.60;99.90;;;;;;4992244;28;20458;-66
2023/07/28 07:10:50;;;;;;;875.27;789.53;;;18.60;99.90;;;;;;4992178;28;20935;-66
2023/07/28 07:13:17;;;;;;;886.13;799.83;;;18.70;99.90;;;;;;4991872;28;20947;-66
2023/07/28 07:15:44;;;;;;;871.87;786.70;;;18.70;99.90;;;;;;4992478;28;20501;-66
2023/07/28 07:18:11;;;;;;;895.70;809.90;;;18.80;99.90;;;;;;4992320;28;20454;-66
2023/07/28 07:20:38;;;;;;;876.20;792.73;;;18.80;99.90;;;;;;4992083;28;20493;-66
2023/07/28 07:23:05;;;;;;;866.00;784.30;;;18.80;99.90;;;;;;4992596;28;20462;-67
2023/07/28 07:25:32;;;;;;;864.57;783.90;;;18.80;99.90;;;;;;4992025;28;20505;-66
2023/07/28 07:28:01;;;;;;;865.67;784.80;;;18.90;99.90;;;;;;4991883;28;20458;-66
2023/07/28 07:30:27;;;;;;;869.23;788.27;;;18.90;99.90;;;;;;4990271;28;20464;-66
2023/07/28 07:32:54;;;;;;;870.47;790.57;;;19.00;99.90;;;;;;4991586;28;20458;-67
2023/07/28 07:35:21;;;;;;;868.13;793.70;;;19.00;99.90;;;;;;4991168;28;21232;-66
2023/07/28 07:37:48;;;;;;;853.87;778.47;;;19.00;99.90;;;;;;4991462;28;20455;-66
2023/07/28 07:40:15;;;;;;;858.43;782.40;;;19.10;99.90;;;;;;4991547;28;20627;-65
2023/07/28 07:42:43;;;;;;;865.17;788.47;;;19.10;99.90;;;;;;4991540;28;20466;-66
2023/07/28 07:45:12;;;;;;;857.33;782.63;;;19.20;99.90;;;;;;4991299;28;20474;-65
2023/07/28 07:47:40;;;;;;;853.87;782.00;;;19.20;99.90;;;;;;4991683;28;20454;-66
2023/07/28 07:50:08;;;;;;;856.87;784.60;;;19.10;99.90;;;;;;4991936;28;20872;-66
2023/07/28 07:52:35;;;;;;;857.83;788.17;;;19.10;99.90;;;;;;4991619;28;20462;-66
2023/07/28 07:55:02;;;;;;;849.43;778.90;;;19.10;99.90;;;;;;4991851;28;20450;-66
2023/07/28 07:57:30;;;;;;;846.43;778.47;;;19.10;99.90;;;;;;4991834;28;20462;-66
2023/07/28 07:59:59;;;;;;;854.23;784.87;;;19.10;99.90;;;;;;4993961;28;20461;-66
2023/07/28 08:02:27;;;;;;;852.03;783.13;;;19.10;99.90;;;;;;4995425;28;20892;-66
2023/07/28 08:04:54;;;;;;;849.20;781.37;;;19.20;99.90;;;;;;4995067;28;20486;-66
2023/07/28 08:07:22;;;;;;;854.50;785.60;;;19.20;99.90;;;;;;4995004;28;20458;-66
2023/07/28 08:09:49;;;;;;;840.07;774.17;;;19.40;99.90;;;;;;4995074;28;20497;-66
2023/07/28 08:12:16;;;;;;;843.13;778.90;;;19.50;99.90;;;;;;4995048;28;20909;-66
2023/07/28 08:14:43;;;;;;;834.90;769.13;;;19.40;99.90;;;;;;4995760;28;20451;-66
2023/07/28 08:17:10;;;;;;;831.93;770.83;;;19.50;99.90;;;;;;4994758;28;20462;-66
2023/07/28 08:19:39;;;;;;;834.27;772.77;;;19.50;99.90;;;;;;4995055;28;20533;-66
2023/07/28 08:22:06;;;;;;;841.07;778.00;;;19.50;99.90;;;;;;4995525;28;20486;-66
2023/07/28 08:24:33;;;;;;;840.97;782.07;;;19.50;99.90;;;;;;4995276;28;20482;-66
2023/07/28 08:27:00;;;;;;;837.10;779.37;;;19.60;99.90;;;;;;4995298;28;20454;-66
2023/07/28 08:29:27;;;;;;;836.10;776.23;;;19.90;99.90;;;;;;4995505;28;20458;-66
2023/07/28 08:31:54;;;;;;;813.13;761.43;;;20.30;99.90;;;;;;4995102;28;20454;-66
2023/07/28 08:34:21;;;;;;;799.83;753.83;;;20.50;99.90;;;;;;4995258;28;20458;-66
2023/07/28 08:36:49;;;;;;;783.00;741.47;;;20.60;99.90;;;;;;4995301;28;20481;-66
2023/07/28 08:39:16;;;;;;;697.07;664.87;;;20.60;99.90;;;;;;4995112;28;20481;-66
2023/07/28 08:41:43;;;;;;;684.47;654.00;;;20.60;99.90;;;;;;4994981;28;20450;-66
2023/07/28 08:44:10;;;;;;;693.07;662.33;;;20.60;99.90;;;;;;4995144;28;20476;-66
2023/07/28 08:46:37;;;;;;;699.03;667.33;;;20.60;99.90;;;;;;4995014;28;20497;-66
2023/07/28 08:49:05;;;;;;;788.10;748.33;;;20.60;99.90;;;;;;4994979;28;20458;-66
2023/07/28 08:51:32;;;;;;;691.57;660.37;;;20.70;99.90;;;;;;4994865;28;20462;-67
2023/07/28 08:54:00;;;;;;;619.83;594.33;;;21.10;99.90;;;;;;4994850;28;20460;-67
2023/07/28 08:56:29;;;;;;;464.73;447.73;;;21.40;99.90;;;;;;4994866;28;20545;-67
2023/07/28 08:58:59;;;;;;;370.87;358.13;;;21.50;99.90;;;;;;4994847;28;20466;-67
2023/07/28 09:01:26;;;;;;;294.53;284.83;;;22.10;99.90;;;;;;4994847;28;20830;-67
2023/07/28 09:03:53;;;;;;;95.40;91.97;;;22.40;99.90;;;;;;4994015;28;20458;-68
2023/07/28 09:06:30;;;;;;;126.00;121.57;;;22.70;99.90;;;;;;4993890;28;20484;-67
2023/07/28 09:08:57;;;;;;;42.83;40.73;;;23.00;99.90;;;;;;4993808;28;20500;-67
2023/07/28 09:11:27;;;;;;;20.73;19.63;;;22.90;99.90;;;;;;4993870;28;20454;-68
2023/07/28 09:13:56;;;;;;;22.77;21.60;;;22.70;99.90;;;;;;4994184;28;20553;-68
2023/07/28 09:16:24;;;;;;;26.33;25.03;;;22.70;99.90;;;;;;4994370;28;20481;-67
2023/07/28 09:18:51;;;;;;;29.63;28.10;;;22.70;99.90;;;;;;4994411;28;20465;-68
2023/07/28 09:21:20;;;;;;;21.53;20.47;;;23.00;99.90;;;;;;4994091;28;20604;-67
2023/07/28 09:23:48;;;;;;;13.37;12.00;;;23.30;99.90;;;;;;4994500;28;20458;-67
2023/07/28 09:26:15;;;;;;;7.97;7.20;;;23.40;99.90;;;;;;4994467;28;20490;-68
2023/07/28 09:28:43;;;;;;;7.83;7.23;;;23.80;99.90;;;;;;4994349;28;20461;-68
2023/07/28 09:31:14;;;;;;;7.20;4.30;;;24.10;99.90;;;;;;4993639;28;20458;-68
2023/07/28 09:33:46;;;;;;;5.13;3.87;;;24.00;99.90;;;;;;4994110;28;20516;-68
2023/07/28 09:36:15;;;;;;;5.27;3.70;;;24.00;99.90;;;;;;4994422;28;20505;-68
2023/07/28 09:38:43;;;;;;;4.47;3.23;;;24.00;99.90;;;;;;4993853;28;20545;-68
2023/07/28 09:41:11;;;;;;;4.77;3.30;;;23.80;99.90;;;;;;4993824;28;20458;-67
2023/07/28 09:43:39;;;;;;;5.30;3.23;;;23.80;99.90;;;;;;4994000;28;20461;-68
2023/07/28 09:46:08;;;;;;;5.87;3.30;;;23.90;99.90;;;;;;4993982;28;20514;-67
2023/07/28 09:48:38;;;;;;;6.23;2.90;;;23.70;99.90;;;;;;4993894;28;20537;-68
2023/07/28 09:51:11;;;;;;;4.80;3.10;;;23.60;99.90;;;;;;4993724;28;20950;-67
2023/07/28 09:53:49;;;;;;;6.10;4.30;;;23.30;99.90;;;;;;4994072;28;20533;-68
2023/07/28 09:56:17;;;;;;;6.13;4.60;;;22.90;99.90;;;;;;4993973;28;20881;-67
2023/07/28 09:58:52;;;;;;;10.53;9.73;;;22.80;99.90;;;;;;4993596;28;20458;-67
2023/07/28 10:01:21;;;;;;;14.77;13.77;;;23.00;99.90;;;;;;4993661;28;20544;-67
2023/07/28 10:03:49;;;;;;;15.80;14.60;;;23.20;99.90;;;;;;4993803;28;21025;-67
2023/07/28 10:06:17;;;;;;;5.30;3.37;;;23.40;99.90;;;;;;4993238;28;20486;-68
2023/07/28 10:08:45;;;;;;;4.70;3.10;;;23.20;99.90;;;;;;4993088;28;20462;-68
2023/07/28 10:11:13;;;;;;;7.40;2.57;;;23.10;99.90;;;;;;4993061;28;20458;-68
2023/07/28 10:13:46;;;;;;;4.70;2.80;;;22.90;99.90;;;;;;4993216;28;20466;-68
2023/07/28 10:16:14;;;;;;;8.70;3.20;;;22.80;99.90;;;;;;4993821;28;20458;-67
2023/07/28 10:18:42;;;;;;;4.53;3.10;;;22.60;99.90;;;;;;4993268;28;20521;-68
2023/07/28 10:21:13;;;;;;;18.97;17.97;;;22.30;99.90;;;;;;4992664;28;20454;-68
2023/07/28 10:23:40;;;;;;;7.60;7.00;;;22.30;99.90;;;;;;4993233;28;20458;-67
2023/07/28 10:26:07;;;;;;;137.48;132.93;;;22.20;99.90;;;;;;4992198;28;20456;-66
2023/07/28 10:28:38;;;;;;;73.03;70.40;;;22.30;99.90;;;;;;4993043;28;20203;-67
2023/07/28 10:31:07;;;;;;;8.90;8.30;;;23.20;99.90;;;;;;4992820;28;20549;-68
2023/07/28 10:33:36;;;;;;;4.80;2.43;;;24.40;99.90;;;;;;4992850;28;20466;-65
2023/07/28 10:36:34;;;;;;;5.23;2.43;;;25.50;99.90;;;;;;4991580;28;20489;-66
2023/07/28 10:39:03;;;;;;;4.80;2.00;;;27.20;95.50;;;;;;4992747;28;20455;-66
2023/07/28 10:41:30;;;;;;;3.97;1.30;;;27.20;90.90;;;;;;4992277;28;20451;-66
2023/07/28 10:43:57;;;;;;;4.37;1.50;;;27.20;84.30;;;;;;4992595;28;20457;-66
2023/07/28 10:46:24;;;;;;;4.20;1.57;;;26.70;83.90;;;;;;4992484;28;20486;-66
2023/07/28 10:48:51;;;;;;;5.37;1.53;;;26.20;87.50;;;;;;4992312;28;20458;-66
2023/07/28 10:51:24;;;;;;;5.10;1.63;;;26.00;90.60;;;;;;4992977;28;20458;-67
2023/07/28 10:53:52;;;;;;;9.10;2.00;;;25.40;90.40;;;;;;4992756;28;20878;-68
2023/07/28 10:56:19;;;;;;;4.30;1.97;;;24.30;95.10;;;;;;4992718;28;20967;-67
2023/07/28 10:58:46;;;;;;;4.80;2.13;;;23.90;96.70;;;;;;4991267;28;20458;-67
2023/07/28 11:01:15;;;;;;;5.77;3.10;;;23.50;99.90;;;;;;4992864;28;20815;-68
2023/07/28 11:03:42;;;;;;;6.10;3.97;;;23.00;99.90;;;;;;4992530;28;20458;-65
2023/07/28 11:06:09;;;;;;;17.73;16.80;;;22.30;99.90;;;;;;4992171;28;20482;-64
2023/07/28 11:08:37;;;;;;;124.13;120.03;;;21.70;99.90;;;;;;4991641;28;20939;-65
2023/07/28 11:11:06;;;;;;;243.20;235.87;;;21.50;99.90;;;;;;4991560;28;20458;-65
2023/07/28 11:13:33;;;;;;;405.83;394.00;;;21.50;99.90;;;;;;4991708;28;20930;-66
2023/07/28 11:16:01;;;;;;;340.07;330.23;;;21.80;99.90;;;;;;4992933;28;20477;-66
2023/07/28 11:18:28;;;;;;;445.27;431.77;;;21.70;99.90;;;;;;4992494;28;20489;-65
2023/07/28 11:20:59;;;;;;;762.73;726.37;;;21.80;99.90;;;;;;4992218;28;20550;-65
2023/07/28 11:23:26;;;;;;;544.70;527.13;;;22.30;99.90;;;;;;4992565;28;20454;-66
2023/07/28 11:25:55;;;;;;;402.57;390.83;;;22.90;99.90;;;;;;4992869;28;20484;-65
2023/07/28 11:28:26;;;;;;;387.83;375.57;;;23.30;99.90;;;;;;4991996;28;20455;-65
2023/07/28 11:30:53;;;;;;;257.50;249.67;;;24.20;99.90;;;;;;4991944;28;20968;-64
2023/07/28 11:33:20;;;;;;;27.02;25.83;;;24.90;99.90;;;;;;4992315;28;20852;-65
2023/07/28 11:35:48;;;;;;;10.30;9.60;;;25.20;99.90;;;;;;4996493;28;20452;-65
2023/07/28 11:38:16;;;;;;;6.43;3.30;;;25.80;99.90;;;;;;4995764;28;20460;-65
2023/07/28 11:40:42;;;;;;;4.60;1.80;;;26.50;99.90;;;;;;4996336;28;20504;-66
2023/07/28 11:43:11;;;;;;;4.50;2.20;;;26.40;96.00;;;;;;4996345;28;20454;-66
2023/07/28 11:45:38;;;;;;;5.30;1.47;;;26.60;94.20;;;;;;4996506;28;20528;-66
2023/07/28 11:48:07;;;;;;;3.83;1.20;;;26.70;90.80;;;;;;4996337;28;20498;-66
2023/07/28 11:50:37;;;;;;;4.00;1.30;;;26.50;90.70;;;;;;4996083;28;20459;-66
2023/07/28 11:53:05;;;;;;;3.90;1.33;;;26.30;90.60;;;;;;4996046;28;20466;-66
2023/07/28 11:55:37;;;;;;;5.10;1.80;;;26.20;90.60;;;;;;4993139;28;20489;-67
2023/07/28 11:58:05;;;;;;;4.43;1.47;;;25.90;90.50;;;;;;4995677;28;20836;-67
2023/07/28 12:00:35;;;;;;;6.10;1.60;;;25.20;90.30;;;;;;4995360;28;20458;-67
2023/07/28 12:03:10;;;;;;;4.30;1.87;;;24.90;91.10;;;;;;4995464;28;20541;-67
2023/07/28 12:05:38;;;;;;;6.03;1.90;;;24.70;93.60;;;;;;4995342;28;20457;-67
2023/07/28 12:08:05;;;;;;;4.80;2.10;;;24.70;93.40;;;;;;4994297;28;20466;-67
2023/07/28 12:10:33;;;;;;;5.70;2.17;;;25.10;93.80;;;;;;4995071;28;20541;-67
2023/07/28 12:13:05;;;;;;;4.00;1.70;;;24.80;93.70;;;;;;4995213;28;20490;-66
2023/07/28 12:15:41;;;;;;;4.17;1.90;;;24.40;93.50;;;;;;4995436;28;20532;-67
2023/07/28 12:18:11;;;;;;;4.40;1.80;;;24.30;93.80;;;;;;4995148;28;21017;-66
2023/07/28 12:20:39;;;;;;;5.00;2.47;;;24.10;96.80;;;;;;4994804;28;20509;-66